Time;durP1;ratioP1;P1;durP2;ratioP2;P2;SDS_P1;SDS_P2;PMS_P1;PMS_P2;Temp;Humidity;BMP_temperature;BMP_pressure;BME280_temperature;BME280_humidity;BME280_pressure;Samples;Min_cycle;Max_cycle;Signal;HPM_P1;HPM_P2
2023/07/10 00:02:23;;;;;;;8.95;3.30;;;17.00;99.90;;;;;;4986975;28;20100;-79
2023/07/10 00:04:50;;;;;;;10.20;2.05;;;17.00;99.90;;;;;;4995503;28;20042;-80
2023/07/10 00:07:17;;;;;;;11.00;2.13;;;17.10;99.90;;;;;;4996510;28;20092;-80
2023/07/10 00:09:43;;;;;;;10.73;2.33;;;17.10;99.90;;;;;;4979863;28;20047;-79
2023/07/10 00:12:10;;;;;;;14.48;2.55;;;17.10;99.90;;;;;;4995064;28;20062;-77
2023/07/10 00:14:37;;;;;;;10.90;2.28;;;17.20;99.90;;;;;;4979368;28;20050;-79
2023/07/10 00:17:04;;;;;;;11.27;2.20;;;17.20;99.90;;;;;;4996483;28;20042;-78
2023/07/10 00:19:32;;;;;;;9.88;2.20;;;17.20;99.90;;;;;;4994640;28;20049;-79
2023/07/10 00:21:59;;;;;;;10.80;2.20;;;17.20;99.90;;;;;;4995166;28;20405;-79
2023/07/10 00:24:25;;;;;;;10.85;2.20;;;17.20;99.90;;;;;;4995132;28;20378;-79
2023/07/10 00:26:52;;;;;;;13.43;2.28;;;17.20;99.90;;;;;;4989148;28;20418;-79
2023/07/10 00:29:19;;;;;;;17.50;2.28;;;17.20;99.90;;;;;;4976091;28;20501;-79
2023/07/10 00:31:45;;;;;;;11.10;2.28;;;17.20;99.90;;;;;;4974752;28;20389;-81
2023/07/10 00:34:12;;;;;;;8.25;2.08;;;17.20;99.90;;;;;;4975340;28;20437;-79
2023/07/10 00:36:41;;;;;;;11.57;2.10;;;17.20;99.90;;;;;;4975772;28;20050;-81
2023/07/10 00:39:08;;;;;;;8.95;2.10;;;17.10;99.90;;;;;;4975824;28;20054;-79
2023/07/10 00:41:35;;;;;;;16.02;2.75;;;17.00;99.90;;;;;;4975397;28;20081;-79
2023/07/10 00:44:03;;;;;;;11.95;2.42;;;17.00;99.90;;;;;;4975163;28;20478;-79
2023/07/10 00:46:30;;;;;;;9.50;3.13;;;16.90;99.90;;;;;;4974489;28;20493;-81
2023/07/10 00:48:58;;;;;;;5.85;1.80;;;16.90;99.90;;;;;;4975277;28;20063;-78
2023/07/10 00:51:25;;;;;;;10.80;2.20;;;16.80;99.90;;;;;;4974988;28;20113;-78
2023/07/10 00:53:51;;;;;;;9.05;2.75;;;16.70;99.90;;;;;;4975904;28;20042;-80
2023/07/10 00:56:19;;;;;;;7.85;2.10;;;16.70;99.90;;;;;;4976430;28;20113;-80
2023/07/10 00:58:46;;;;;;;16.75;2.47;;;16.60;99.90;;;;;;4975420;28;20050;-81
2023/07/10 01:01:16;;;;;;;12.43;2.30;;;16.60;99.90;;;;;;4974970;28;20062;-82
2023/07/10 01:03:43;;;;;;;14.10;2.38;;;16.60;99.90;;;;;;4974790;28;20137;-79
2023/07/10 01:06:10;;;;;;;10.75;2.25;;;16.50;99.90;;;;;;4974555;28;20053;-80
2023/07/10 01:08:36;;;;;;;6.32;1.90;;;16.40;99.90;;;;;;4975350;28;20062;-79
2023/07/10 01:11:03;;;;;;;9.73;2.35;;;16.40;99.90;;;;;;4976014;28;20035;-79
2023/07/10 01:13:30;;;;;;;9.75;2.05;;;16.40;99.90;;;;;;4973388;28;20497;-80
2023/07/10 01:15:57;;;;;;;9.60;2.47;;;16.40;99.90;;;;;;4975293;28;20074;-80
2023/07/10 01:18:24;;;;;;;16.25;2.80;;;16.30;99.90;;;;;;4975748;28;20039;-80
2023/07/10 01:20:51;;;;;;;8.73;1.92;;;16.30;99.90;;;;;;4979027;28;20054;-78
2023/07/10 01:23:18;;;;;;;11.98;2.30;;;16.20;99.90;;;;;;4993961;28;20541;-78
2023/07/10 01:25:47;;;;;;;14.68;2.15;;;16.10;99.90;;;;;;4995206;28;20461;-81
2023/07/10 01:28:14;;;;;;;12.73;2.30;;;16.10;99.90;;;;;;4995512;28;20066;-81
2023/07/10 01:30:41;;;;;;;14.50;2.92;;;16.10;99.90;;;;;;4995888;28;20046;-80
2023/07/10 01:33:09;;;;;;;8.38;1.88;;;16.10;99.90;;;;;;4977415;28;20089;-81
2023/07/10 01:35:35;;;;;;;10.05;2.38;;;16.20;99.90;;;;;;4962296;28;20050;-81
2023/07/10 01:38:02;;;;;;;12.15;3.15;;;16.10;99.90;;;;;;4992779;28;20081;-79
2023/07/10 01:40:29;;;;;;;9.30;2.47;;;16.10;99.90;;;;;;4995095;28;20358;-80
2023/07/10 01:42:56;;;;;;;13.13;2.40;;;16.10;99.90;;;;;;4994252;28;20038;-78
2023/07/10 01:45:23;;;;;;;10.13;2.25;;;16.00;99.90;;;;;;4993708;28;20093;-81
2023/07/10 01:47:52;;;;;;;8.73;2.20;;;16.00;99.90;;;;;;4995064;28;20043;-81
2023/07/10 01:50:20;;;;;;;9.73;2.50;;;15.90;99.90;;;;;;4987893;28;20054;-82
2023/07/10 01:52:47;;;;;;;14.10;2.70;;;15.90;99.90;;;;;;4957812;28;20485;-78
2023/07/10 01:55:13;;;;;;;12.90;2.40;;;15.90;99.90;;;;;;4958915;28;20047;-81
2023/07/10 01:57:40;;;;;;;7.78;2.42;;;15.80;99.90;;;;;;4958616;28;20429;-81
2023/07/10 02:00:07;;;;;;;8.10;2.33;;;15.80;99.90;;;;;;4958429;28;20054;-82
2023/07/10 02:02:37;;;;;;;9.00;2.40;;;15.80;99.90;;;;;;4975440;28;20531;-80
2023/07/10 02:05:05;;;;;;;10.60;2.33;;;15.80;99.90;;;;;;4960389;28;20062;-78
2023/07/10 02:07:31;;;;;;;10.65;2.60;;;15.80;99.90;;;;;;4998013;28;20401;-79
2023/07/10 02:09:58;;;;;;;11.82;2.67;;;15.80;99.90;;;;;;4998517;28;20046;-78
2023/07/10 02:12:25;;;;;;;10.07;2.75;;;15.70;99.90;;;;;;4991789;28;20086;-80
2023/07/10 02:14:52;;;;;;;12.18;2.72;;;15.70;99.90;;;;;;4997611;28;20116;-81
2023/07/10 02:17:19;;;;;;;10.13;2.63;;;15.70;99.90;;;;;;4998467;28;20157;-81
2023/07/10 02:19:46;;;;;;;10.55;2.35;;;15.60;99.90;;;;;;4996986;28;20453;-79
2023/07/10 02:22:13;;;;;;;12.73;2.83;;;15.60;99.90;;;;;;4997314;28;20066;-80
2023/07/10 02:24:41;;;;;;;13.38;2.38;;;15.60;99.90;;;;;;4997413;28;20100;-79
2023/07/10 02:27:08;;;;;;;12.15;3.22;;;15.50;99.90;;;;;;4998851;28;20353;-79
2023/07/10 02:29:35;;;;;;;8.20;2.20;;;15.50;99.90;;;;;;4998279;28;20050;-81
2023/07/10 02:32:02;;;;;;;9.73;2.28;;;15.50;99.90;;;;;;4997849;28;20046;-79
2023/07/10 02:34:29;;;;;;;14.82;2.33;;;15.50;99.90;;;;;;4997892;28;20125;-80
2023/07/10 02:36:56;;;;;;;9.50;2.53;;;15.40;99.90;;;;;;4997533;28;20148;-78
2023/07/10 02:39:23;;;;;;;8.80;2.40;;;15.40;99.90;;;;;;4996524;28;20042;-80
2023/07/10 02:41:49;;;;;;;10.82;2.33;;;15.40;99.90;;;;;;4997079;28;20046;-81
2023/07/10 02:44:16;;;;;;;14.77;2.38;;;15.30;99.90;;;;;;4996829;28;20384;-81
2023/07/10 02:46:45;;;;;;;12.57;2.55;;;15.20;99.90;;;;;;4996431;28;20073;-82
2023/07/10 02:49:12;;;;;;;9.50;2.58;;;15.20;99.90;;;;;;4997307;28;20046;-82
2023/07/10 02:51:39;;;;;;;10.73;2.70;;;15.20;99.90;;;;;;4997360;28;20469;-82
2023/07/10 02:54:05;;;;;;;14.50;2.55;;;15.10;99.90;;;;;;4996872;28;20050;-80
2023/07/10 02:56:33;;;;;;;14.10;2.90;;;15.10;99.90;;;;;;4996728;28;20046;-80
2023/07/10 02:59:00;;;;;;;11.77;2.65;;;15.10;99.90;;;;;;4996335;28;20064;-81
2023/07/10 03:01:27;;;;;;;11.73;2.55;;;15.10;99.90;;;;;;4997837;28;20461;-81
2023/07/10 03:03:54;;;;;;;12.93;2.63;;;15.00;99.90;;;;;;4996442;28;20116;-79
2023/07/10 03:06:24;;;;;;;8.70;2.40;;;15.00;99.90;;;;;;5005770;28;20133;-82
2023/07/10 03:08:50;;;;;;;10.75;2.10;;;15.00;99.90;;;;;;5017816;28;20049;-80
2023/07/10 03:11:17;;;;;;;8.80;2.40;;;14.90;99.90;;;;;;4999419;28;20097;-78
2023/07/10 03:13:44;;;;;;;8.20;2.53;;;14.90;99.90;;;;;;5017059;28;20421;-78
2023/07/10 03:16:11;;;;;;;11.60;2.50;;;14.80;99.90;;;;;;4998537;28;20049;-81
2023/07/10 03:18:38;;;;;;;10.73;2.30;;;14.90;99.90;;;;;;4999425;28;20042;-81
2023/07/10 03:21:05;;;;;;;10.68;2.67;;;14.90;99.90;;;;;;5017385;28;20080;-81
2023/07/10 03:23:31;;;;;;;9.77;2.67;;;14.80;99.90;;;;;;5016536;28;20048;-79
2023/07/10 03:25:58;;;;;;;7.45;2.20;;;14.80;99.90;;;;;;5015991;28;20072;-79
2023/07/10 03:28:25;;;;;;;15.73;2.55;;;14.80;99.90;;;;;;5017065;28;20056;-79
2023/07/10 03:30:52;;;;;;;9.60;2.10;;;14.80;99.90;;;;;;5017255;28;20396;-79
2023/07/10 03:33:19;;;;;;;11.05;2.38;;;14.70;99.90;;;;;;5015710;28;20046;-81
2023/07/10 03:35:51;;;;;;;7.43;1.92;;;14.60;99.90;;;;;;5016636;28;20121;-82
2023/07/10 03:38:17;;;;;;;6.10;1.90;;;14.60;99.90;;;;;;5016088;28;20050;-81
2023/07/10 03:40:44;;;;;;;10.02;2.17;;;14.60;99.90;;;;;;4999409;28;20070;-79
2023/07/10 03:43:11;;;;;;;9.23;2.25;;;14.60;99.90;;;;;;5016248;28;20037;-82
2023/07/10 03:45:38;;;;;;;11.00;2.45;;;14.50;99.90;;;;;;4998555;28;20076;-78
2023/07/10 03:48:05;;;;;;;8.30;2.20;;;14.50;99.90;;;;;;5016551;28;20354;-80
2023/07/10 03:50:32;;;;;;;10.20;2.00;;;14.40;99.90;;;;;;5016839;28;20046;-81
2023/07/10 03:52:58;;;;;;;5.47;1.98;;;14.40;99.90;;;;;;5015522;28;20077;-82
2023/07/10 03:58:10;;;;;;;14.10;2.78;;;14.30;99.90;;;;;;5015717;28;20088;-82
2023/07/10 04:00:37;;;;;;;16.42;2.58;;;14.40;99.90;;;;;;5016087;28;20077;-81
2023/07/10 04:03:04;;;;;;;11.48;2.53;;;14.40;99.90;;;;;;5016352;28;20060;-82
2023/07/10 04:05:31;;;;;;;12.75;2.30;;;14.50;99.90;;;;;;5012224;28;20041;-81
2023/07/10 04:07:58;;;;;;;9.27;2.35;;;14.50;99.90;;;;;;4979509;28;20056;-81
2023/07/10 04:10:24;;;;;;;9.60;2.30;;;14.50;99.90;;;;;;4996483;28;20129;-79
2023/07/10 04:12:51;;;;;;;6.22;1.80;;;14.40;99.90;;;;;;4995161;28;20093;-81
2023/07/10 04:15:20;;;;;;;8.13;2.35;;;14.40;99.90;;;;;;4996771;28;20065;-79
2023/07/10 04:17:46;;;;;;;11.38;2.30;;;14.40;99.90;;;;;;4995545;28;20105;-79
2023/07/10 04:20:13;;;;;;;6.80;2.08;;;14.30;99.90;;;;;;4979301;28;20445;-81
2023/07/10 04:22:40;;;;;;;9.10;2.20;;;14.30;99.90;;;;;;4996130;28;20046;-82
2023/07/10 04:25:07;;;;;;;9.07;2.10;;;14.30;99.90;;;;;;4995755;28;20149;-80
2023/07/10 04:27:34;;;;;;;10.88;2.45;;;14.30;99.90;;;;;;4996029;28;20042;-82
2023/07/10 04:30:00;;;;;;;6.32;1.77;;;14.30;99.90;;;;;;4995907;28;20074;-82
2023/07/10 04:32:27;;;;;;;9.02;2.22;;;14.30;99.90;;;;;;4978302;28;20061;-80
2023/07/10 04:34:56;;;;;;;10.65;2.28;;;14.30;99.90;;;;;;4996026;28;20053;-81
2023/07/10 04:37:23;;;;;;;7.10;2.08;;;14.30;99.90;;;;;;4996289;28;20053;-82
2023/07/10 04:39:49;;;;;;;14.73;2.35;;;14.30;99.90;;;;;;4978542;28;20050;-80
2023/07/10 04:42:16;;;;;;;13.90;3.10;;;14.40;99.90;;;;;;4996469;28;20054;-80
2023/07/10 04:44:43;;;;;;;12.10;2.83;;;14.40;99.90;;;;;;4995444;28;20034;-79
2023/07/10 04:47:10;;;;;;;7.03;2.38;;;14.50;99.90;;;;;;4996141;28;20045;-77
2023/07/10 04:49:37;;;;;;;13.73;2.40;;;14.60;99.90;;;;;;4995832;28;20425;-82
2023/07/10 04:52:03;;;;;;;11.48;3.00;;;14.60;99.90;;;;;;4994924;28;20436;-81
2023/07/10 04:54:30;;;;;;;12.23;2.80;;;14.70;99.90;;;;;;4996239;28;20159;-78
2023/07/10 04:59:42;;;;;;;9.90;2.60;;;14.90;99.90;;;;;;4994924;28;20046;-80
2023/07/10 05:02:10;;;;;;;9.27;3.17;;;15.00;99.90;;;;;;4995619;28;20066;-80
2023/07/10 05:04:37;;;;;;;9.32;2.58;;;15.10;99.90;;;;;;4977773;28;20048;-78
2023/07/10 05:07:04;;;;;;;7.72;2.63;;;15.20;99.90;;;;;;5011656;28;20058;-81
2023/07/10 05:09:31;;;;;;;9.93;2.40;;;15.30;99.90;;;;;;5015411;28;20049;-81
2023/07/10 05:11:58;;;;;;;9.48;2.40;;;15.40;99.90;;;;;;5014234;28;20137;-81
2023/07/10 05:14:24;;;;;;;16.35;2.60;;;15.50;99.90;;;;;;5014807;28;20105;-81
2023/07/10 05:16:53;;;;;;;16.48;2.33;;;15.60;99.90;;;;;;5015290;28;20041;-82
2023/07/10 05:19:23;;;;;;;;;;;15.60;99.90;;;;;;4998593;28;20037;-80
2023/07/10 05:21:50;;;;;;;13.48;2.30;;;15.70;99.90;;;;;;5014926;28;20338;-82
2023/07/10 05:24:16;;;;;;;10.70;2.30;;;15.80;99.90;;;;;;5014692;28;20479;-81
2023/07/10 05:26:43;;;;;;;11.93;2.30;;;15.90;99.90;;;;;;5014211;28;20427;-79
2023/07/10 05:29:10;;;;;;;10.07;2.45;;;16.00;99.90;;;;;;5014876;28;20112;-81
2023/07/10 05:31:37;;;;;;;12.65;2.17;;;16.00;99.90;;;;;;5014415;28;20045;-80
2023/07/10 05:34:03;;;;;;;8.45;2.33;;;16.10;99.90;;;;;;5015210;28;20357;-78
2023/07/10 05:36:31;;;;;;;12.75;2.78;;;16.30;99.90;;;;;;5014865;28;20073;-79
2023/07/10 05:38:58;;;;;;;9.82;2.13;;;16.30;99.90;;;;;;4975855;28;20368;-81
2023/07/10 05:41:24;;;;;;;16.00;2.25;;;16.40;99.90;;;;;;4979796;28;20035;-82
2023/07/10 05:43:51;;;;;;;12.27;2.72;;;16.60;99.90;;;;;;4979686;28;20042;-78
2023/07/10 05:49:03;;;;;;;12.93;3.05;;;16.60;99.90;;;;;;4998670;28;20049;-79
2023/07/10 05:51:30;;;;;;;14.45;2.55;;;16.70;99.90;;;;;;4998767;28;20126;-78
2023/07/10 05:53:57;;;;;;;7.25;2.53;;;16.70;99.90;;;;;;4998636;28;20053;-81
2023/07/10 05:56:24;;;;;;;9.73;1.95;;;16.80;99.90;;;;;;4998769;28;20121;-78
2023/07/10 05:58:51;;;;;;;7.72;2.15;;;16.90;99.90;;;;;;4980869;28;20050;-79
2023/07/10 06:01:17;;;;;;;7.28;1.85;;;17.10;99.90;;;;;;4982359;28;20058;-78
2023/07/10 06:03:44;;;;;;;7.97;1.90;;;17.20;99.90;;;;;;4981400;28;20465;-80
2023/07/10 06:08:57;;;;;;;8.00;2.30;;;17.40;99.90;;;;;;4999094;28;20057;-80
2023/07/10 06:11:24;;;;;;;6.80;2.10;;;17.40;99.90;;;;;;4998236;28;20050;-77
2023/07/10 06:13:51;;;;;;;8.75;2.33;;;17.40;99.90;;;;;;4993927;28;20050;-81
2023/07/10 06:16:19;;;;;;;9.50;2.47;;;17.40;99.90;;;;;;4998847;28;20053;-80
2023/07/10 06:18:46;;;;;;;9.63;2.00;;;17.50;99.90;;;;;;4998019;28;20047;-81
2023/07/10 06:21:13;;;;;;;8.68;2.20;;;17.60;99.90;;;;;;4997868;28;20073;-78
2023/07/10 06:23:40;;;;;;;8.02;2.00;;;17.70;99.90;;;;;;4997485;28;20352;-77
2023/07/10 06:26:07;;;;;;;7.50;1.60;;;17.80;99.90;;;;;;4997778;28;20042;-80
2023/07/10 06:28:34;;;;;;;11.85;1.90;;;18.00;99.90;;;;;;4998242;28;20520;-80
2023/07/10 06:31:01;;;;;;;8.55;1.52;;;18.00;99.90;;;;;;4998404;28;20042;-79
2023/07/10 06:33:27;;;;;;;7.93;1.40;;;18.20;99.90;;;;;;4996571;28;20038;-77
2023/07/10 06:35:54;;;;;;;8.90;1.58;;;18.30;99.90;;;;;;4998180;28;20057;-79
2023/07/10 06:38:21;;;;;;;5.55;1.38;;;18.40;99.90;;;;;;4996748;28;20081;-79
2023/07/10 06:40:48;;;;;;;6.45;1.17;;;18.60;99.90;;;;;;4997404;28;20038;-81
2023/07/10 06:43:15;;;;;;;5.68;1.52;;;18.90;99.90;;;;;;4997931;28;20053;-80
2023/07/10 06:45:42;;;;;;;5.68;1.30;;;19.00;99.90;;;;;;4997359;28;20093;-79
2023/07/10 06:48:09;;;;;;;10.25;1.80;;;19.10;99.90;;;;;;4997732;28;20054;-80
2023/07/10 06:50:36;;;;;;;3.38;1.23;;;19.00;99.90;;;;;;4998008;28;20437;-80
2023/07/10 06:53:03;;;;;;;5.78;1.45;;;19.00;99.90;;;;;;4996919;28;20038;-78
2023/07/10 06:55:50;;;;;;;6.55;1.52;;;18.90;99.90;;;;;;4997966;28;20057;-80
2023/07/10 06:58:17;;;;;;;5.07;1.50;;;19.00;99.90;;;;;;4997203;28;20506;-79
2023/07/10 07:00:44;;;;;;;7.93;1.17;;;19.10;99.90;;;;;;4997933;28;20100;-80
2023/07/10 07:03:10;;;;;;;7.47;1.42;;;19.30;99.90;;;;;;4997461;28;20476;-80
2023/07/10 07:05:37;;;;;;;6.13;1.30;;;19.40;99.90;;;;;;4996733;28;20096;-83
2023/07/10 07:08:04;;;;;;;6.45;1.33;;;19.60;99.90;;;;;;4998170;28;20088;-80
2023/07/10 07:10:32;;;;;;;7.72;1.83;;;19.80;99.90;;;;;;4998378;28;20050;-80
2023/07/10 07:12:59;;;;;;;11.73;1.50;;;19.90;99.90;;;;;;4995368;28;20131;-80
2023/07/10 07:15:27;;;;;;;5.45;1.30;;;20.00;99.90;;;;;;4997626;28;20046;-79
2023/07/10 07:17:54;;;;;;;7.95;1.65;;;20.10;99.90;;;;;;4996685;28;20047;-80
2023/07/10 07:20:20;;;;;;;8.20;1.42;;;20.20;99.90;;;;;;4997939;28;20042;-81
2023/07/10 07:22:47;;;;;;;6.40;1.25;;;20.30;99.90;;;;;;4997051;28;20070;-81
2023/07/10 07:25:15;;;;;;;9.88;1.45;;;20.20;99.90;;;;;;4996683;28;20049;-78
2023/07/10 07:27:42;;;;;;;7.35;1.20;;;20.30;99.90;;;;;;4997278;28;20073;-78
2023/07/10 07:30:09;;;;;;;5.00;1.20;;;20.40;99.90;;;;;;4997180;28;20108;-80
2023/07/10 07:32:35;;;;;;;6.03;1.20;;;20.70;99.90;;;;;;4996277;28;20433;-79
2023/07/10 07:35:02;;;;;;;8.10;1.50;;;20.70;99.90;;;;;;4996651;28;20070;-76
2023/07/10 07:37:29;;;;;;;16.05;1.50;;;20.80;99.90;;;;;;4997634;28;20100;-82
2023/07/10 07:39:58;;;;;;;7.57;1.38;;;20.70;99.90;;;;;;4996239;28;20461;-82
2023/07/10 07:42:25;;;;;;;6.03;1.30;;;20.80;99.90;;;;;;4996769;28;20081;-81
2023/07/10 07:44:52;;;;;;;6.57;1.30;;;21.00;99.90;;;;;;4996282;28;20462;-81
2023/07/10 07:47:18;;;;;;;10.98;1.63;;;20.90;99.90;;;;;;4993016;28;20436;-81
2023/07/10 07:49:45;;;;;;;6.47;1.33;;;20.80;99.90;;;;;;5011846;28;20042;-85
2023/07/10 07:52:12;;;;;;;11.35;1.85;;;20.70;99.90;;;;;;5011156;28;20050;-84
2023/07/10 07:54:38;;;;;;;6.13;1.50;;;20.70;99.90;;;;;;5007524;28;20085;-78
2023/07/10 07:59:54;;;;;;;8.95;1.73;;;21.10;99.90;;;;;;4995664;28;20056;-80
2023/07/10 08:02:21;;;;;;;7.43;1.80;;;21.30;99.90;;;;;;4987068;28;20039;-81
2023/07/10 08:04:48;;;;;;;6.70;1.30;;;21.50;99.90;;;;;;4995372;28;20038;-80
2023/07/10 08:07:15;;;;;;;10.55;1.80;;;21.40;99.90;;;;;;5001540;28;20054;-80
2023/07/10 08:09:41;;;;;;;8.48;1.55;;;21.40;99.90;;;;;;5011470;28;20117;-79
2023/07/10 08:12:08;;;;;;;11.18;1.90;;;21.50;99.90;;;;;;5009994;28;20069;-79
2023/07/10 08:14:35;;;;;;;12.70;1.95;;;21.60;99.90;;;;;;4996524;28;20343;-79
2023/07/10 08:17:02;;;;;;;6.28;1.60;;;21.70;99.90;;;;;;4995720;28;20073;-82
2023/07/10 08:19:29;;;;;;;8.85;1.60;;;22.00;99.90;;;;;;4995167;28;20038;-81
2023/07/10 08:21:57;;;;;;;9.75;1.60;;;22.30;99.90;;;;;;4994703;28;20065;-82
2023/07/10 08:24:24;;;;;;;7.03;1.42;;;22.40;99.90;;;;;;4995509;28;20378;-79
2023/07/10 08:26:51;;;;;;;9.85;1.50;;;22.50;99.90;;;;;;4995526;28;20062;-79
2023/07/10 08:29:18;;;;;;;7.75;1.63;;;22.80;99.90;;;;;;4995844;28;20046;-79
2023/07/10 08:31:45;;;;;;;8.70;2.15;;;23.00;99.90;;;;;;4994585;28;20058;-79
2023/07/10 08:34:12;;;;;;;7.85;1.77;;;23.20;99.90;;;;;;4994764;28;20057;-78
2023/07/10 08:36:38;;;;;;;10.73;1.77;;;23.20;99.90;;;;;;4995456;28;20125;-78
2023/07/10 08:39:05;;;;;;;7.55;1.48;;;23.30;99.90;;;;;;4994390;28;20046;-79
2023/07/10 08:41:32;;;;;;;9.02;1.60;;;23.60;99.90;;;;;;4995360;28;20038;-79
2023/07/10 08:43:58;;;;;;;12.20;2.25;;;23.40;99.90;;;;;;4995102;28;20050;-78
2023/07/10 08:46:25;;;;;;;10.55;2.33;;;23.10;99.90;;;;;;4994619;28;20062;-78
2023/07/10 08:48:52;;;;;;;7.53;1.75;;;23.00;99.90;;;;;;4994599;28;20038;-80
2023/07/10 08:51:19;;;;;;;12.80;2.15;;;23.10;99.90;;;;;;4994554;28;20065;-79
2023/07/10 08:53:45;;;;;;;4.78;1.35;;;23.00;99.90;;;;;;4994794;28;20381;-80
2023/07/10 08:56:14;;;;;;;6.40;1.25;;;22.60;99.90;;;;;;4994290;28;20436;-79
2023/07/10 08:58:41;;;;;;;13.07;1.70;;;22.20;99.90;;;;;;4994358;28;20046;-78
2023/07/10 09:01:08;;;;;;;8.55;2.00;;;21.70;99.90;;;;;;4995349;28;20038;-80
2023/07/10 09:03:34;;;;;;;8.73;1.80;;;21.60;99.90;;;;;;4993778;28;20050;-78
2023/07/10 09:06:06;;;;;;;10.30;1.80;;;21.60;99.90;;;;;;4994313;28;20053;-79
2023/07/10 09:08:33;;;;;;;7.35;1.80;;;21.50;99.90;;;;;;4994757;28;20276;-80
2023/07/10 09:11:01;;;;;;;6.40;1.92;;;21.50;99.90;;;;;;4994356;28;20046;-81
2023/07/10 09:13:27;;;;;;;8.63;1.65;;;21.80;99.90;;;;;;4993576;28;20104;-79
2023/07/10 09:15:57;;;;;;;9.07;1.77;;;22.00;99.90;;;;;;4995029;28;20050;-78
2023/07/10 09:18:24;;;;;;;9.98;1.70;;;21.80;99.90;;;;;;4994052;28;20057;-80
2023/07/10 09:20:51;;;;;;;6.32;1.65;;;22.00;99.90;;;;;;4995240;28;20054;-78
2023/07/10 09:23:17;;;;;;;6.35;1.55;;;22.30;99.90;;;;;;4993722;28;20145;-78
2023/07/10 09:25:44;;;;;;;5.75;1.55;;;22.30;99.90;;;;;;4994080;28;20065;-79
2023/07/10 09:28:11;;;;;;;8.65;1.58;;;22.10;99.90;;;;;;4994813;28;20096;-79
2023/07/10 09:30:38;;;;;;;7.43;1.77;;;22.20;99.90;;;;;;4977679;28;20069;-79
2023/07/10 09:33:04;;;;;;;5.57;1.50;;;22.50;99.90;;;;;;4992944;28;20047;-81
2023/07/10 09:35:31;;;;;;;7.53;1.60;;;22.60;99.90;;;;;;4995337;28;20528;-78
2023/07/10 09:37:58;;;;;;;10.63;1.52;;;22.80;99.90;;;;;;4994323;28;20429;-80
2023/07/10 09:40:25;;;;;;;10.48;2.22;;;23.10;99.90;;;;;;4994725;28;20050;-80
2023/07/10 09:42:51;;;;;;;9.13;1.80;;;23.40;99.90;;;;;;4994912;28;20382;-80
2023/07/10 09:45:18;;;;;;;5.75;1.30;;;23.60;99.90;;;;;;4976870;28;20138;-80
2023/07/10 09:47:47;;;;;;;7.95;1.40;;;23.60;99.90;;;;;;4994047;28;20425;-79
2023/07/10 09:50:13;;;;;;;7.25;1.50;;;24.00;99.90;;;;;;4994861;28;20042;-80
2023/07/10 09:52:40;;;;;;;11.63;1.65;;;24.00;99.90;;;;;;4993834;28;20113;-85
2023/07/10 09:55:09;;;;;;;5.40;1.38;;;24.00;99.90;;;;;;4977795;28;20042;-81
2023/07/10 09:57:36;;;;;;;8.88;1.70;;;23.70;99.90;;;;;;4998287;28;20516;-82
2023/07/10 10:00:03;;;;;;;7.07;1.60;;;23.70;99.90;;;;;;4993826;28;20042;-83
2023/07/10 10:02:32;;;;;;;8.77;1.55;;;24.10;99.90;;;;;;4987738;28;20046;-82
2023/07/10 10:04:59;;;;;;;9.38;1.65;;;24.00;99.90;;;;;;4984291;28;20369;-86
2023/07/10 10:07:26;;;;;;;7.10;1.65;;;24.10;99.90;;;;;;4994823;28;20374;-83
2023/07/10 10:09:52;;;;;;;6.93;1.63;;;24.20;99.90;;;;;;4994925;28;20189;-81
2023/07/10 10:12:19;;;;;;;9.75;1.60;;;24.30;99.90;;;;;;4993636;28;20469;-84
2023/07/10 10:14:47;;;;;;;8.30;1.67;;;24.40;99.90;;;;;;4977699;28;20363;-85
2023/07/10 10:17:14;;;;;;;10.15;2.30;;;24.70;99.90;;;;;;4962698;28;20474;-81
2023/07/10 10:19:40;;;;;;;7.30;1.58;;;24.80;99.90;;;;;;4987056;28;20081;-83
2023/07/10 10:22:07;;;;;;;7.50;1.83;;;24.60;99.90;;;;;;4974809;28;20429;-83
2023/07/10 10:24:34;;;;;;;6.50;1.52;;;24.80;99.90;;;;;;4987218;28;20338;-82
2023/07/10 10:27:01;;;;;;;8.68;2.00;;;24.70;99.90;;;;;;4992502;28;20130;-84
2023/07/10 10:29:28;;;;;;;8.98;2.30;;;24.90;99.90;;;;;;4981152;28;20138;-82
2023/07/10 10:31:54;;;;;;;6.95;1.50;;;24.60;99.90;;;;;;4995460;28;20047;-85
2023/07/10 10:34:21;;;;;;;9.15;2.08;;;24.40;99.90;;;;;;4997974;28;20038;-83
2023/07/10 10:36:48;;;;;;;9.02;2.00;;;24.50;99.90;;;;;;4980836;28;20050;-85
2023/07/10 10:39:17;;;;;;;9.57;2.08;;;24.60;99.90;;;;;;4980235;28;20350;-84
2023/07/10 10:41:44;;;;;;;8.55;2.00;;;25.20;99.90;;;;;;4996742;28;20465;-84
2023/07/10 10:44:11;;;;;;;9.27;2.20;;;25.30;99.90;;;;;;4996705;28;20074;-85
2023/07/10 10:49:24;;;;;;;7.93;1.92;;;25.90;99.90;;;;;;4989911;28;20385;-83
2023/07/10 10:51:50;;;;;;;8.95;2.17;;;26.10;99.90;;;;;;4991235;28;20050;-81
2023/07/10 10:54:17;;;;;;;8.45;1.95;;;25.90;99.90;;;;;;4978465;28;20366;-81
2023/07/10 10:56:58;;;;;;;9.07;2.33;;;25.90;99.90;;;;;;4978813;28;20043;-79
2023/07/10 10:59:25;;;;;;;6.82;1.90;;;26.20;99.90;;;;;;4977744;28;20094;-80
2023/07/10 11:01:52;;;;;;;8.10;1.98;;;26.50;99.90;;;;;;4978283;28;20050;-79
2023/07/10 11:04:19;;;;;;;8.15;1.95;;;26.20;99.90;;;;;;4978319;28;20047;-79
2023/07/10 11:06:46;;;;;;;10.52;2.22;;;26.30;99.90;;;;;;4990454;28;20038;-80
2023/07/10 11:09:12;;;;;;;9.38;2.30;;;26.20;99.90;;;;;;4996133;28;20438;-81
2023/07/10 11:11:39;;;;;;;8.18;1.80;;;26.10;99.90;;;;;;4996793;28;20042;-81
2023/07/10 11:14:08;;;;;;;8.55;2.00;;;26.80;99.90;;;;;;4997412;28;20046;-80
2023/07/10 11:16:35;;;;;;;8.75;2.35;;;27.10;99.90;;;;;;4997357;28;20129;-81
2023/07/10 11:19:02;;;;;;;8.68;2.17;;;26.90;99.90;;;;;;4980208;28;20085;-78
2023/07/10 11:21:29;;;;;;;9.35;1.85;;;26.70;99.90;;;;;;4996620;28;20054;-79
2023/07/10 11:23:56;;;;;;;12.25;2.25;;;26.60;99.90;;;;;;4997827;28;20129;-78
2023/07/10 11:26:22;;;;;;;11.52;2.30;;;26.10;99.90;;;;;;4996330;28;20034;-78
2023/07/10 11:28:49;;;;;;;8.93;2.28;;;26.50;99.90;;;;;;4996934;28;20077;-78
2023/07/10 11:31:32;;;;;;;6.75;1.70;;;27.00;99.90;;;;;;4995136;28;20046;-79
2023/07/10 11:33:59;;;;;;;9.20;2.00;;;27.70;99.90;;;;;;4997387;28;20121;-78
2023/07/10 11:36:27;;;;;;;8.15;2.00;;;28.20;99.90;;;;;;4995408;28;20054;-78
2023/07/10 11:38:53;;;;;;;8.82;2.10;;;28.40;99.90;;;;;;4996225;28;20125;-79
2023/07/10 11:41:20;;;;;;;7.05;2.10;;;28.20;99.90;;;;;;4996876;28;20074;-78
2023/07/10 11:43:47;;;;;;;6.78;2.03;;;28.10;99.90;;;;;;4996638;28;20129;-78
2023/07/10 11:46:14;;;;;;;7.20;1.88;;;27.90;99.90;;;;;;4996133;28;20042;-80
2023/07/10 11:48:40;;;;;;;6.30;2.05;;;27.90;99.90;;;;;;4997183;28;20050;-79
2023/07/10 11:51:07;;;;;;;8.25;1.58;;;27.50;99.90;;;;;;4995953;28;20378;-78
2023/07/10 11:53:34;;;;;;;10.05;2.10;;;27.40;99.90;;;;;;4996790;28;20541;-80
2023/07/10 11:56:00;;;;;;;8.35;2.22;;;27.30;99.90;;;;;;4996552;28;20104;-78
2023/07/10 11:58:28;;;;;;;8.40;2.20;;;27.10;99.90;;;;;;4995947;28;20158;-80
2023/07/10 12:00:55;;;;;;;9.75;1.92;;;27.10;99.90;;;;;;4996821;28;20049;-79
2023/07/10 12:03:24;;;;;;;9.77;2.17;;;27.30;99.90;;;;;;4996831;28;20049;-81
2023/07/10 12:08:36;;;;;;;9.23;1.95;;;26.90;99.90;;;;;;5016346;28;20088;-77
2023/07/10 12:11:03;;;;;;;9.30;2.10;;;27.30;99.90;;;;;;5016091;28;20046;-79
2023/07/10 12:13:30;;;;;;;7.78;1.73;;;27.40;99.90;;;;;;5015524;28;20129;-79
2023/07/10 12:15:57;;;;;;;8.07;2.00;;;28.10;99.90;;;;;;5016222;28;20041;-79
2023/07/10 12:18:24;;;;;;;6.85;1.70;;;28.90;99.90;;;;;;5015076;28;20053;-78
2023/07/10 12:20:51;;;;;;;7.28;2.10;;;28.90;99.90;;;;;;5016384;28;20034;-76
2023/07/10 12:23:17;;;;;;;8.38;2.00;;;29.00;99.90;;;;;;5015621;28;20489;-77
2023/07/10 12:25:45;;;;;;;8.45;2.00;;;28.60;99.90;;;;;;5014938;28;20041;-77
2023/07/10 12:28:12;;;;;;;6.18;1.90;;;28.20;99.90;;;;;;5015774;28;20080;-77
2023/07/10 12:30:52;;;;;;;6.97;1.95;;;28.10;99.90;;;;;;5015904;28;20049;-79
2023/07/10 12:33:19;;;;;;;10.60;2.13;;;28.40;99.90;;;;;;5014475;28;20052;-78
2023/07/10 12:35:47;;;;;;;9.68;2.10;;;28.30;99.90;;;;;;5015534;28;20107;-78
2023/07/10 12:38:14;;;;;;;9.73;1.90;;;28.30;99.90;;;;;;4997661;28;20049;-80
2023/07/10 12:40:40;;;;;;;8.35;1.85;;;29.00;99.90;;;;;;5015685;28;20069;-78
2023/07/10 12:43:07;;;;;;;7.97;1.85;;;29.40;99.80;;;;;;5015750;28;20103;-80
2023/07/10 12:45:35;;;;;;;8.13;1.88;;;29.20;99.90;;;;;;5014786;28;20072;-79
2023/07/10 12:48:02;;;;;;;9.48;2.40;;;28.70;98.30;;;;;;4998532;28;20077;-81
2023/07/10 12:50:28;;;;;;;7.38;1.83;;;29.10;97.90;;;;;;4998101;28;20054;-80
2023/07/10 12:52:55;;;;;;;6.57;1.95;;;28.90;98.00;;;;;;4997139;28;20372;-81
2023/07/10 12:55:24;;;;;;;10.13;2.10;;;29.40;97.20;;;;;;5015238;28;20050;-80
2023/07/10 12:57:51;;;;;;;8.20;1.92;;;30.10;96.60;;;;;;5014376;28;20038;-81
2023/07/10 13:00:17;;;;;;;7.13;1.98;;;30.20;95.60;;;;;;5015106;28;20049;-80
2023/07/10 13:02:44;;;;;;;8.05;2.25;;;30.20;95.70;;;;;;5015033;28;20410;-78